Terminal Aerodrome Forecast
Issued by NWS

Home | Current Version | Previous Version | Text Only | Print | Product List | Glossary On
Versions: 1 2 3 4 5 6 7 8 9 10 11 12 13 14 15 16
000
FTUS45 KTFX 282335
TAFHLN
TAF
KHLN 282335Z 2900/2924 30010G16KT P6SM SCT100
     FM290200 30008KT P6SM FEW070 SCT110
     FM290700 32010KT P6SM SCT060 BKN100
     FM291700 32008KT P6SM VCSH SCT040 BKN070
     FM292200 33006KT P6SM SCT060 BKN080=

USA.gov is the U.S. government's official web portal to all federal, state and local government web resources and services.